Latest Weather Observations for Snowtown

IDS60801

Issued at 11:01 pm CST Sunday 30 August 2015 (issued every 30 minutes, with the page automatically refreshed every 10 minutes)

About weather observations | Map of weather stations | Latest weather observations for SA | Other Formats
Station Details ID: 021133 Name: RAYVILLE PARK Lat: -33.77 Lon: 138.22 Height: 109.1 m
Data from the previous 72 hours. | See also: Recent months at Snowtown
Date/Time
CST
Temp
°C
App
Temp
°C
Dew
Point
Rel
Hum
%
Delta-T
°C
Wind Press
QNH
hPa
Press
MSL
hPa
Rain
since 9 am
mm
Dir
 
Spd
km/h
Gust
km/h
Spd
kts
Gust
kts
30/11:00pm 2.0 -1.5 1.4 96 0.2 WNW 9 11 5 6 1022.6 1022.7 0.0
30/10:30pm 1.9 -1.2 1.2 95 0.3 WNW 7 9 4 5 1022.5 1022.6 0.0
30/10:00pm 2.3 0.6 1.6 95 0.3 CALM 0 0 0 0 1022.6 1022.7 0.0
30/09:30pm 2.7 -0.7 2.0 95 0.3 WNW 9 9 5 5 1022.8 1022.9 0.0
30/09:00pm 2.7 -0.4 1.5 92 0.5 WNW 7 9 4 5 1023.0 1023.1 0.0
30/08:30pm 4.6 3.1 2.8 88 0.7 CALM 0 0 0 0 1023.2 1023.3 0.0
30/08:00pm 5.2 3.6 2.6 83 1.1 CALM 0 0 0 0 1023.0 1023.1 0.0
30/07:30pm 6.0 4.8 4.5 90 0.6 CALM 0 0 0 0 1022.7 1022.8 0.0
30/07:00pm 5.9 2.2 4.4 90 0.6 WNW 13 15 7 8 1022.7 1022.8 0.0
30/06:30pm 7.5 3.5 5.0 84 1.1 WNW 15 17 8 9 1022.7 1022.8 0.0
30/06:00pm 9.7 5.9 5.9 77 1.7 WNW 15 19 8 10 1022.5 1022.6 0.0
30/05:30pm 12.6 9.5 7.1 69 2.7 WNW 13 17 7 9 1022.2 1022.4 0.0
30/05:00pm 14.9 12.7 7.9 63 3.5 NNW 9 13 5 7 1021.9 1022.1 0.0
30/04:30pm 15.8 13.1 5.7 51 4.9 N 9 13 5 7 1021.7 1021.9 0.0
30/04:00pm 16.1 13.1 6.0 51 4.9 N 11 17 6 9 1021.9 1022.1 0.0
30/03:30pm 16.7 14.2 3.7 42 6.0 NNE 6 13 3 7 1022.0 1022.2 0.0
30/03:00pm 16.6 13.8 3.3 41 6.1 NE 7 11 4 6 1022.3 1022.5 0.0
30/02:30pm 16.9 15.3 4.3 43 5.9 NE 2 9 1 5 1022.7 1022.8 0.0
30/02:00pm 16.5 13.2 6.3 51 5.0 NE 13 20 7 11 1022.9 1023.0 0.0
30/01:30pm 16.4 13.7 5.7 49 5.2 NE 9 15 5 8 1023.2 1023.3 0.0
30/01:00pm 16.2 13.4 6.9 54 4.6 N 11 19 6 10 1023.6 1023.7 0.0
30/12:30pm 15.6 12.3 4.6 48 5.2 NNE 11 17 6 9 1024.2 1024.3 0.0
30/12:00pm 15.4 11.9 5.6 52 4.7 N 13 17 7 9 1024.6 1024.7 0.0
30/11:30am 14.6 10.9 6.4 58 4.0 NNE 15 20 8 11 1025.0 1025.1 0.0
30/11:00am 14.0 10.2 5.9 58 3.9 NNE 15 22 8 12 1025.4 1025.5 0.0
30/10:30am 12.6 9.0 5.1 60 3.5 NNE 13 20 7 11 1025.8 1025.9 0.0
30/10:00am 11.5 7.6 5.2 65 2.9 NNE 15 19 8 10 1026.1 1026.2 0.0
30/09:30am 10.6 7.0 4.9 68 2.6 NNE 13 17 7 9 1026.2 1026.3 0.0
30/09:00am 9.7 6.8 4.5 70 2.3 NNW 9 11 5 6 1026.3 1026.4 0.0
30/08:30am 8.7 7.6 5.1 78 1.6 CALM 0 0 0 0 1026.5 1026.6 0.0
30/08:00am 6.0 3.7 4.8 92 0.5 NNW 6 7 3 4 1026.5 1026.6 0.0
30/07:30am 2.8 -0.2 2.1 95 0.3 NNW 7 9 4 5 1026.2 1026.3 0.0
30/07:00am 0.4 -3.3 -0.3 95 0.3 NNW 9 11 5 6 1026.1 1026.2 0.0
30/06:30am 0.3 -3.8 -0.3 96 0.2 NNW 11 13 6 7 1025.8 1025.9 0.0
30/06:00am 0.0 -4.5 -0.4 97 0.1 SSE 13 15 7 8 1025.7 1025.8 0.0
30/05:30am 0.1 -4.0 -0.3 97 0.1 SSE 11 13 6 7 1025.5 1025.6 0.0
30/05:00am -0.3 -4.5 -0.7 97 0.1 SSE 11 13 6 7 1025.4 1025.5 0.0
30/04:30am -0.4 -3.8 -0.8 97 0.1 SSE 7 9 4 5 1025.4 1025.5 0.0
30/04:00am -0.3 -2.4 -0.7 97 0.1 CALM 0 0 0 0 1025.5 1025.6 0.0
30/03:30am -0.2 -3.4 -0.6 97 0.1 SSE 6 7 3 4 1025.6 1025.7 0.0
30/03:00am -0.1 -3.5 -0.5 97 0.1 SSE 7 7 4 4 1025.8 1025.9 0.0
30/02:30am 0.3 -3.0 -0.1 97 0.1 SSE 7 9 4 5 1026.0 1026.1 0.0
30/02:00am 0.1 -2.3 -0.5 96 0.2 SSE 2 7 1 4 1026.4 1026.5 0.0
30/01:30am 0.4 -1.6 -0.2 96 0.2 CALM 0 0 0 0 1026.6 1026.7 0.0
30/01:00am 0.4 -1.6 -0.3 95 0.3 CALM 0 0 0 0 1026.8 1026.9 0.0
30/12:30am 2.1 -1.0 1.5 96 0.2 SW 7 9 4 5 1026.8 1026.9 0.0
30/12:00am 2.2 -0.9 1.6 96 0.2 WSW 7 7 4 4 1026.9 1027.0 0.0
 
Date/Time
CST
Temp
°C
App
Temp
°C
Dew
Point
Rel
Hum
%
Delta-T
°C
Wind Press
QNH
hPa
Press
MSL
hPa
Rain
since 9 am
mm
Dir
 
Spd
km/h
Gust
km/h
Spd
kts
Gust
kts
29/11:30pm 2.4 -1.1 1.5 94 0.3 WSW 9 9 5 5 1026.9 1027.0 0.0
29/11:00pm 3.3 0.0 2.4 94 0.4 WSW 9 11 5 6 1027.0 1027.1 0.0
29/10:30pm 4.2 0.7 3.5 95 0.3 SW 11 13 6 7 1027.1 1027.2 0.0
29/10:00pm 4.4 0.9 3.5 94 0.4 SW 11 13 6 7 1027.2 1027.3 0.0
29/09:30pm 4.9 1.5 4.0 94 0.4 SW 11 13 6 7 1027.3 1027.4 0.0
29/09:00pm 5.1 1.3 4.1 93 0.4 SW 13 15 7 8 1027.2 1027.3 0.0
29/08:30pm 5.4 1.7 4.4 93 0.4 SW 13 15 7 8 1027.0 1027.1 0.0
29/08:00pm 6.3 2.7 5.1 92 0.5 SSW 13 17 7 9 1026.8 1026.9 0.0
29/07:30pm 7.4 4.0 5.7 89 0.8 SSW 13 17 7 9 1026.7 1026.8 0.0
29/07:00pm 8.7 4.6 6.3 85 1.1 SSW 17 22 9 12 1026.3 1026.4 0.0
29/06:30pm 8.3 4.6 6.4 88 0.9 SSW 15 19 8 10 1026.1 1026.2 0.0
29/06:00pm 10.2 6.3 7.3 82 1.4 S 17 24 9 13 1025.9 1026.0 0.0
29/05:30pm 11.5 7.1 7.4 76 2.0 S 20 28 11 15 1025.7 1025.8 0.0
29/05:00pm 12.6 8.4 7.3 70 2.6 SSE 19 24 10 13 1025.4 1025.5 0.0
29/04:30pm 14.2 9.8 7.3 63 3.4 SSE 20 30 11 16 1025.2 1025.3 0.0
29/04:00pm 13.9 11.4 6.7 62 3.5 SE 9 22 5 12 1025.2 1025.3 0.0
29/03:30pm 13.6 9.8 5.7 59 3.7 ESE 15 20 8 11 1025.2 1025.3 0.0
29/03:00pm 15.0 11.2 3.8 47 5.1 SE 13 17 7 9 1025.4 1025.5 0.0
29/02:30pm 13.9 10.6 4.8 54 4.2 ESE 11 17 6 9 1025.7 1025.8 0.0
29/02:00pm 15.4 12.4 4.2 47 5.2 ESE 9 15 5 8 1025.8 1025.9 0.0
29/01:30pm 14.0 10.5 5.6 57 4.0 ESE 13 17 7 9 1026.1 1026.2 0.0
29/01:00pm 14.9 11.8 7.2 60 3.8 SE 13 20 7 11 1026.4 1026.5 0.0
29/12:30pm 13.5 10.7 6.8 64 3.2 SE 11 20 6 11 1027.0 1027.1 0.0
29/12:00pm 12.9 10.2 5.6 61 3.4 ESE 9 13 5 7 1027.5 1027.6 0.0
29/11:30am 12.9 10.2 5.6 61 3.4 E 9 15 5 8 1027.8 1027.9 0.0
29/11:00am 13.3 10.7 7.7 69 2.8 NNE 11 19 6 10 1028.1 1028.3 0.0
29/10:30am 12.0 9.0 7.7 75 2.1 NE 13 20 7 11 1028.4 1028.6 0.0
29/10:00am 11.0 7.2 7.5 79 1.7 ENE 17 24 9 13 1028.6 1028.8 0.0
29/09:30am 9.8 6.1 6.3 79 1.6 NE 15 20 8 11 1028.7 1028.9 0.0
29/09:00am 8.7 5.7 6.0 83 1.2 NNE 11 13 6 7 1028.8 1029.0 0.0
29/08:30am 6.7 3.5 4.9 88 0.8 NNE 11 15 6 8 1028.6 1028.8 0.0
29/08:00am 6.0 3.9 5.9 99 0.0 WSW 6 7 3 4 1028.2 1028.4 0.0
29/07:30am 1.4 -1.2 1.1 98 0.1 WSW 4 7 2 4 1028.1 1028.3 0.0
29/07:00am -0.4 -2.5 -0.7 98 0.1 CALM 0 0 0 0 1027.7 1027.8 0.0
29/06:30am -0.7 -2.8 -1.0 98 0.1 CALM 0 0 0 0 1027.5 1027.6 0.0
29/06:00am -0.4 -2.5 -0.8 97 0.1 CALM 0 0 0 0 1027.2 1027.3 0.0
29/05:30am -0.2 -3.4 -0.6 97 0.1 WSW 6 7 3 4 1027.1 1027.2 0.0
29/05:00am -0.2 -3.6 -0.6 97 0.1 WSW 7 9 4 5 1027.0 1027.1 0.0
29/04:30am -0.3 -2.4 -0.7 97 0.1 CALM 0 0 0 0 1027.1 1027.2 0.0
29/04:00am 0.4 -2.9 0.0 97 0.1 WSW 7 9 4 5 1027.1 1027.2 0.0
29/03:30am 0.2 -2.2 -0.4 96 0.2 SW 2 6 1 3 1027.0 1027.1 0.0
29/03:00am 0.9 -1.1 0.2 95 0.3 CALM 0 0 0 0 1027.3 1027.4 0.0
29/02:30am 2.4 -0.5 1.7 95 0.3 SW 6 9 3 5 1027.5 1027.6 0.0
29/02:00am 2.7 -0.3 2.0 95 0.3 SW 7 9 4 5 1027.8 1027.9 0.0
29/01:30am 3.7 1.4 2.8 94 0.4 SW 4 7 2 4 1028.0 1028.2 0.0
29/01:00am 4.6 1.1 3.6 93 0.4 SW 11 13 6 7 1028.2 1028.4 0.0
29/12:30am 6.0 2.8 5.0 93 0.4 SW 11 13 6 7 1028.2 1028.4 0.0
29/12:00am 6.4 4.0 5.2 92 0.5 SW 7 9 4 5 1028.3 1028.5 0.0
 
Date/Time
CST
Temp
°C
App
Temp
°C
Dew
Point
Rel
Hum
%
Delta-T
°C
Wind Press
QNH
hPa
Press
MSL
hPa
Rain
since 9 am
mm
Dir
 
Spd
km/h
Gust
km/h
Spd
kts
Gust
kts
28/11:30pm 6.7 3.1 5.2 90 0.7 WSW 13 15 7 8 1028.2 1028.4 0.0
28/11:00pm 7.0 4.7 5.9 93 0.5 WSW 7 9 4 5 1028.3 1028.5 0.0
28/10:30pm 7.0 4.4 6.1 94 0.4 WSW 9 13 5 7 1028.5 1028.7 0.0
28/10:00pm 6.5 4.2 5.6 94 0.4 WSW 7 9 4 5 1028.7 1028.9 0.0
28/09:30pm 5.3 2.0 4.4 94 0.4 WSW 11 13 6 7 1028.7 1028.9 0.0
28/09:00pm 5.5 2.2 4.5 93 0.4 WSW 11 13 6 7 1028.6 1028.8 0.0
28/08:30pm 6.4 3.2 5.2 92 0.5 SW 11 13 6 7 1028.3 1028.5 0.0
28/08:00pm 8.7 5.5 6.8 88 0.9 SSW 13 17 7 9 1027.9 1028.1 0.0
28/07:30pm 10.0 7.0 7.8 86 1.1 S 13 17 7 9 1027.9 1028.1 0.0
28/07:00pm 10.2 7.6 7.8 85 1.2 S 11 15 6 8 1027.6 1027.7 0.0
28/06:30pm 10.5 7.5 7.6 82 1.4 S 13 19 7 10 1027.4 1027.5 0.0
28/06:00pm 10.6 7.6 7.8 83 1.3 S 13 17 7 9 1027.1 1027.2 0.0
28/05:30pm 10.9 7.2 7.8 81 1.5 SSE 17 20 9 11 1026.9 1027.0 0.0
28/05:00pm 11.6 7.9 8.1 79 1.7 S 17 22 9 12 1026.9 1027.0 0.0
28/04:30pm 12.4 8.5 6.9 69 2.6 SSE 17 24 9 13 1026.7 1026.8 0.0
28/04:00pm 12.7 8.8 7.0 68 2.8 SSE 17 24 9 13 1026.7 1026.8 0.0
28/03:30pm 12.6 8.2 6.4 66 2.9 SSE 19 22 10 12 1026.8 1026.9 0.0
28/03:00pm 12.9 8.3 6.5 65 3.1 SE 20 28 11 15 1026.8 1026.9 0.0
28/02:30pm 13.5 9.1 6.6 63 3.3 SE 19 24 10 13 1026.9 1027.0 0.0
28/02:00pm 13.7 9.3 7.2 65 3.2 SE 20 24 11 13 1027.1 1027.2 0.0
28/01:30pm 13.2 9.3 7.0 66 3.0 SE 17 22 9 12 1027.3 1027.4 0.0
28/01:00pm 13.7 10.8 6.6 62 3.4 SE 11 19 6 10 1027.7 1027.8 0.0
28/12:30pm 13.2 10.3 6.5 64 3.2 ESE 11 17 6 9 1028.3 1028.5 0.0
28/12:00pm 13.9 10.4 7.2 64 3.3 ESE 15 20 8 11 1028.8 1029.0 0.0
28/11:30am 12.4 8.7 7.9 74 2.2 SSE 17 22 9 12 1029.2 1029.4 0.0
28/11:00am 11.5 7.7 7.4 76 2.0 SSE 17 20 9 11 1029.5 1029.7 0.0
28/10:30am 11.6 8.5 7.3 75 2.1 SE 13 19 7 10 1029.6 1029.8 0.0
28/10:00am 11.4 8.1 8.1 80 1.6 SE 15 20 8 11 1029.6 1029.8 0.0
28/09:30am 10.9 7.2 7.8 81 1.5 ESE 17 26 9 14 1029.8 1030.0 0.0
28/09:00am 10.5 8.0 8.4 87 1.0 SE 11 17 6 9 1029.8 1030.0 0.0
28/08:30am 8.9 7.3 7.8 93 0.5 ESE 6 7 3 4 1029.8 1030.0 0.0
28/08:00am 7.7 6.4 7.6 99 0.0 ESE 4 6 2 3 1029.6 1029.8 0.0
28/07:30am 6.4 4.2 6.3 99 0.0 ESE 7 9 4 5 1029.4 1029.6 0.0
28/07:00am 5.3 2.9 5.2 99 0.0 ESE 7 9 4 5 1029.0 1029.2 0.0
28/06:30am 4.6 2.6 4.5 99 0.0 ESE 4 7 2 4 1028.8 1029.0 0.0
28/06:00am 4.6 3.4 4.5 99 0.0 CALM 0 0 0 0 1028.4 1028.6 0.0
28/05:30am 4.2 1.6 4.1 99 0.0 ESE 7 11 4 6 1028.2 1028.4 0.0
28/05:00am 5.0 2.1 4.9 99 0.0 S 9 11 5 6 1028.2 1028.4 0.0
28/04:30am 2.5 0.9 2.2 98 0.1 CALM 0 0 0 0 1028.1 1028.3 0.0
28/04:00am 0.9 -1.0 0.6 98 0.1 CALM 0 0 0 0 1028.0 1028.2 0.0
28/03:30am 1.1 -1.9 0.8 98 0.1 SW 6 11 3 6 1027.9 1028.1 0.0
28/03:00am 0.3 -1.7 -0.1 97 0.1 CALM 0 0 0 0 1028.1 1028.3 0.0
28/02:30am 1.3 -1.7 0.9 97 0.1 WSW 6 7 3 4 1028.2 1028.4 0.0
28/02:00am 1.8 -1.3 1.4 97 0.2 WSW 7 9 4 5 1028.2 1028.4 0.0
28/01:30am 2.5 -0.9 2.1 97 0.2 SW 9 13 5 7 1028.3 1028.5 0.0
28/01:00am 1.9 -1.0 1.3 96 0.2 SW 6 7 3 4 1028.4 1028.6 0.0
28/12:30am 3.4 0.2 3.0 97 0.2 SSW 9 11 5 6 1028.3 1028.5 0.0
28/12:00am 3.2 0.5 2.8 97 0.2 SSW 6 7 3 4 1028.3 1028.5 0.0
 
Date/Time
CST
Temp
°C
App
Temp
°C
Dew
Point
Rel
Hum
%
Delta-T
°C
Wind Press
QNH
hPa
Press
MSL
hPa
Rain
since 9 am
mm
Dir
 
Spd
km/h
Gust
km/h
Spd
kts
Gust
kts
27/11:30pm 4.4 1.4 4.0 97 0.2 SSW 9 11 5 6 1028.3 1028.5 0.0

Other Formats:

Comma delimited format used in spreadsheet applications
http://www.bom.gov.au/fwo/IDS60801/IDS60801.95670.axf

JavaScript Object Notation format (JSON) in row-major order
http://www.bom.gov.au/fwo/IDS60801/IDS60801.95670.json